sensor_id;sensor_type;location;lat;lon;timestamp;P1;durP1;ratioP1;P2;durP2;ratioP2
30378;SDS011;17168;49.164;9.060;2023-05-07T00:02:29;4.18;;;2.42;;
30378;SDS011;17168;49.164;9.060;2023-05-07T00:05:02;4.43;;;4.03;;
30378;SDS011;17168;49.164;9.060;2023-05-07T00:07:38;4.75;;;3.75;;
30378;SDS011;17168;49.164;9.060;2023-05-07T00:10:13;6.25;;;2.80;;
30378;SDS011;17168;49.164;9.060;2023-05-07T00:12:48;4.40;;;2.20;;
30378;SDS011;17168;49.164;9.060;2023-05-07T00:15:21;4.00;;;3.05;;
30378;SDS011;17168;49.164;9.060;2023-05-07T00:17:55;4.07;;;2.03;;
30378;SDS011;17168;49.164;9.060;2023-05-07T00:20:27;3.17;;;2.55;;
30378;SDS011;17168;49.164;9.060;2023-05-07T00:23:09;2.97;;;1.88;;
30378;SDS011;17168;49.164;9.060;2023-05-07T00:25:43;2.13;;;1.58;;
30378;SDS011;17168;49.164;9.060;2023-05-07T00:28:17;2.50;;;1.80;;
30378;SDS011;17168;49.164;9.060;2023-05-07T00:30:49;3.30;;;2.05;;
30378;SDS011;17168;49.164;9.060;2023-05-07T00:33:22;3.55;;;2.95;;
30378;SDS011;17168;49.164;9.060;2023-05-07T00:35:55;3.40;;;2.85;;
30378;SDS011;17168;49.164;9.060;2023-05-07T00:38:31;3.78;;;2.35;;
30378;SDS011;17168;49.164;9.060;2023-05-07T00:41:03;3.50;;;3.20;;
30378;SDS011;17168;49.164;9.060;2023-05-07T00:43:38;3.78;;;2.80;;
30378;SDS011;17168;49.164;9.060;2023-05-07T00:46:13;3.30;;;3.00;;
30378;SDS011;17168;49.164;9.060;2023-05-07T00:48:47;3.60;;;3.30;;
30378;SDS011;17168;49.164;9.060;2023-05-07T00:51:21;3.20;;;2.90;;
30378;SDS011;17168;49.164;9.060;2023-05-07T00:53:59;4.40;;;3.40;;
30378;SDS011;17168;49.164;9.060;2023-05-07T00:56:33;4.57;;;4.18;;
30378;SDS011;17168;49.164;9.060;2023-05-07T00:59:08;2.90;;;2.42;;
30378;SDS011;17168;49.164;9.060;2023-05-07T01:01:40;4.28;;;3.88;;
30378;SDS011;17168;49.164;9.060;2023-05-07T01:04:13;6.35;;;4.28;;
30378;SDS011;17168;49.164;9.060;2023-05-07T01:06:47;3.83;;;2.63;;
30378;SDS011;17168;49.164;9.060;2023-05-07T01:09:24;3.90;;;2.08;;
30378;SDS011;17168;49.164;9.060;2023-05-07T01:14:31;3.90;;;3.50;;
30378;SDS011;17168;49.164;9.060;2023-05-07T01:17:04;4.05;;;3.67;;
30378;SDS011;17168;49.164;9.060;2023-05-07T01:19:38;5.72;;;3.92;;
30378;SDS011;17168;49.164;9.060;2023-05-07T01:22:11;3.47;;;2.75;;
30378;SDS011;17168;49.164;9.060;2023-05-07T01:24:50;4.88;;;3.83;;
30378;SDS011;17168;49.164;9.060;2023-05-07T01:27:24;3.00;;;2.80;;
30378;SDS011;17168;49.164;9.060;2023-05-07T01:29:58;4.25;;;3.55;;
30378;SDS011;17168;49.164;9.060;2023-05-07T01:32:32;2.97;;;2.30;;
30378;SDS011;17168;49.164;9.060;2023-05-07T01:35:09;3.58;;;3.28;;
30378;SDS011;17168;49.164;9.060;2023-05-07T01:37:46;3.95;;;3.55;;
30378;SDS011;17168;49.164;9.060;2023-05-07T01:40:23;3.33;;;3.03;;
30378;SDS011;17168;49.164;9.060;2023-05-07T01:42:57;3.55;;;2.90;;
30378;SDS011;17168;49.164;9.060;2023-05-07T01:45:30;4.55;;;3.15;;
30378;SDS011;17168;49.164;9.060;2023-05-07T01:48:06;3.35;;;3.05;;
30378;SDS011;17168;49.164;9.060;2023-05-07T01:50:41;4.75;;;3.75;;
30378;SDS011;17168;49.164;9.060;2023-05-07T01:56:44;3.38;;;2.50;;
30378;SDS011;17168;49.164;9.060;2023-05-07T01:59:20;3.97;;;3.60;;
30378;SDS011;17168;49.164;9.060;2023-05-07T02:01:53;4.03;;;3.63;;
30378;SDS011;17168;49.164;9.060;2023-05-07T02:04:28;4.47;;;3.17;;
30378;SDS011;17168;49.164;9.060;2023-05-07T02:07:00;3.42;;;3.13;;
30378;SDS011;17168;49.164;9.060;2023-05-07T02:09:33;4.32;;;3.92;;
30378;SDS011;17168;49.164;9.060;2023-05-07T02:12:08;6.70;;;4.03;;
30378;SDS011;17168;49.164;9.060;2023-05-07T02:14:42;4.10;;;3.67;;
30378;SDS011;17168;49.164;9.060;2023-05-07T02:17:15;3.72;;;3.28;;
30378;SDS011;17168;49.164;9.060;2023-05-07T02:19:48;3.80;;;3.42;;
30378;SDS011;17168;49.164;9.060;2023-05-07T02:22:21;4.20;;;3.80;;
30378;SDS011;17168;49.164;9.060;2023-05-07T02:24:54;3.08;;;2.50;;
30378;SDS011;17168;49.164;9.060;2023-05-07T02:27:30;3.85;;;2.38;;
30378;SDS011;17168;49.164;9.060;2023-05-07T02:30:03;4.13;;;3.75;;
30378;SDS011;17168;49.164;9.060;2023-05-07T02:32:38;4.32;;;3.92;;
30378;SDS011;17168;49.164;9.060;2023-05-07T02:35:12;3.30;;;3.00;;
30378;SDS011;17168;49.164;9.060;2023-05-07T02:37:45;4.03;;;3.20;;
30378;SDS011;17168;49.164;9.060;2023-05-07T02:40:18;5.13;;;3.10;;
30378;SDS011;17168;49.164;9.060;2023-05-07T02:42:54;4.82;;;3.15;;
30378;SDS011;17168;49.164;9.060;2023-05-07T02:45:26;4.85;;;3.50;;
30378;SDS011;17168;49.164;9.060;2023-05-07T02:47:59;3.13;;;2.15;;
30378;SDS011;17168;49.164;9.060;2023-05-07T02:50:33;4.05;;;3.25;;
30378;SDS011;17168;49.164;9.060;2023-05-07T02:53:05;3.65;;;2.60;;
30378;SDS011;17168;49.164;9.060;2023-05-07T02:55:38;2.92;;;2.28;;
30378;SDS011;17168;49.164;9.060;2023-05-07T02:58:15;3.40;;;3.10;;
30378;SDS011;17168;49.164;9.060;2023-05-07T03:00:48;3.80;;;2.80;;
30378;SDS011;17168;49.164;9.060;2023-05-07T03:03:20;2.97;;;2.45;;
30378;SDS011;17168;49.164;9.060;2023-05-07T03:05:52;3.88;;;2.85;;
30378;SDS011;17168;49.164;9.060;2023-05-07T03:08:26;3.97;;;2.63;;
30378;SDS011;17168;49.164;9.060;2023-05-07T03:10:58;4.15;;;3.70;;
30378;SDS011;17168;49.164;9.060;2023-05-07T03:13:35;4.50;;;2.00;;
30378;SDS011;17168;49.164;9.060;2023-05-07T03:16:08;5.07;;;4.60;;
30378;SDS011;17168;49.164;9.060;2023-05-07T03:18:41;3.70;;;3.40;;
30378;SDS011;17168;49.164;9.060;2023-05-07T03:21:15;3.95;;;3.65;;
30378;SDS011;17168;49.164;9.060;2023-05-07T03:23:47;3.50;;;2.88;;
30378;SDS011;17168;49.164;9.060;2023-05-07T03:26:20;4.35;;;3.95;;
30378;SDS011;17168;49.164;9.060;2023-05-07T03:28:56;3.75;;;3.45;;
30378;SDS011;17168;49.164;9.060;2023-05-07T03:31:28;5.20;;;3.70;;
30378;SDS011;17168;49.164;9.060;2023-05-07T03:34:01;4.18;;;3.60;;
30378;SDS011;17168;49.164;9.060;2023-05-07T03:36:33;4.03;;;3.50;;
30378;SDS011;17168;49.164;9.060;2023-05-07T03:39:06;3.42;;;2.88;;
30378;SDS011;17168;49.164;9.060;2023-05-07T03:41:38;4.05;;;3.75;;
30378;SDS011;17168;49.164;9.060;2023-05-07T03:44:13;4.85;;;2.70;;
30378;SDS011;17168;49.164;9.060;2023-05-07T03:46:46;3.60;;;3.30;;
30378;SDS011;17168;49.164;9.060;2023-05-07T03:49:18;4.95;;;3.40;;
30378;SDS011;17168;49.164;9.060;2023-05-07T03:51:51;7.22;;;5.00;;
30378;SDS011;17168;49.164;9.060;2023-05-07T03:54:23;5.68;;;2.78;;
30378;SDS011;17168;49.164;9.060;2023-05-07T03:56:58;4.93;;;3.85;;
30378;SDS011;17168;49.164;9.060;2023-05-07T03:59:33;4.25;;;3.80;;
30378;SDS011;17168;49.164;9.060;2023-05-07T04:02:05;4.05;;;3.10;;
30378;SDS011;17168;49.164;9.060;2023-05-07T04:04:38;4.70;;;4.20;;
30378;SDS011;17168;49.164;9.060;2023-05-07T04:07:11;5.30;;;4.10;;
30378;SDS011;17168;49.164;9.060;2023-05-07T04:09:43;4.30;;;3.38;;
30378;SDS011;17168;49.164;9.060;2023-05-07T04:12:16;3.88;;;3.58;;
30378;SDS011;17168;49.164;9.060;2023-05-07T04:14:53;4.50;;;3.78;;
30378;SDS011;17168;49.164;9.060;2023-05-07T04:17:26;3.17;;;2.60;;
30378;SDS011;17168;49.164;9.060;2023-05-07T04:19:58;4.68;;;3.13;;
30378;SDS011;17168;49.164;9.060;2023-05-07T04:22:30;3.90;;;3.08;;
30378;SDS011;17168;49.164;9.060;2023-05-07T04:25:03;4.45;;;4.05;;
30378;SDS011;17168;49.164;9.060;2023-05-07T04:27:36;4.18;;;2.95;;
30378;SDS011;17168;49.164;9.060;2023-05-07T04:30:14;3.60;;;3.15;;
30378;SDS011;17168;49.164;9.060;2023-05-07T04:32:48;4.45;;;3.78;;
30378;SDS011;17168;49.164;9.060;2023-05-07T04:35:21;3.55;;;3.25;;
30378;SDS011;17168;49.164;9.060;2023-05-07T04:37:54;2.90;;;2.55;;
30378;SDS011;17168;49.164;9.060;2023-05-07T04:40:27;3.92;;;3.53;;
30378;SDS011;17168;49.164;9.060;2023-05-07T04:43:00;4.32;;;3.75;;
30378;SDS011;17168;49.164;9.060;2023-05-07T04:45:36;3.90;;;2.70;;
30378;SDS011;17168;49.164;9.060;2023-05-07T04:48:08;3.67;;;2.10;;
30378;SDS011;17168;49.164;9.060;2023-05-07T04:50:41;4.93;;;3.33;;
30378;SDS011;17168;49.164;9.060;2023-05-07T04:53:13;4.03;;;3.17;;
30378;SDS011;17168;49.164;9.060;2023-05-07T04:55:46;2.50;;;1.98;;
30378;SDS011;17168;49.164;9.060;2023-05-07T04:58:20;3.47;;;3.13;;
30378;SDS011;17168;49.164;9.060;2023-05-07T05:00:55;3.40;;;2.65;;
30378;SDS011;17168;49.164;9.060;2023-05-07T05:03:28;3.22;;;2.85;;
30378;SDS011;17168;49.164;9.060;2023-05-07T05:06:01;4.25;;;2.17;;
30378;SDS011;17168;49.164;9.060;2023-05-07T05:08:35;3.63;;;3.33;;
30378;SDS011;17168;49.164;9.060;2023-05-07T05:11:08;3.72;;;3.28;;
30378;SDS011;17168;49.164;9.060;2023-05-07T05:13:41;3.38;;;2.83;;
30378;SDS011;17168;49.164;9.060;2023-05-07T05:16:16;4.25;;;2.13;;
30378;SDS011;17168;49.164;9.060;2023-05-07T05:18:48;2.88;;;2.30;;
30378;SDS011;17168;49.164;9.060;2023-05-07T05:21:23;5.10;;;2.33;;
30378;SDS011;17168;49.164;9.060;2023-05-07T05:23:57;2.50;;;1.70;;
30378;SDS011;17168;49.164;9.060;2023-05-07T05:26:30;3.17;;;2.15;;
30378;SDS011;17168;49.164;9.060;2023-05-07T05:29:03;3.92;;;2.20;;
30378;SDS011;17168;49.164;9.060;2023-05-07T05:31:39;3.50;;;3.20;;
30378;SDS011;17168;49.164;9.060;2023-05-07T05:34:13;3.92;;;3.63;;
30378;SDS011;17168;49.164;9.060;2023-05-07T05:36:46;3.55;;;2.97;;
30378;SDS011;17168;49.164;9.060;2023-05-07T05:39:18;4.15;;;3.40;;
30378;SDS011;17168;49.164;9.060;2023-05-07T05:41:51;2.55;;;2.05;;
30378;SDS011;17168;49.164;9.060;2023-05-07T05:44:25;3.70;;;3.40;;
30378;SDS011;17168;49.164;9.060;2023-05-07T05:47:01;3.65;;;3.33;;
30378;SDS011;17168;49.164;9.060;2023-05-07T05:49:34;4.13;;;3.70;;
30378;SDS011;17168;49.164;9.060;2023-05-07T05:52:06;5.15;;;3.47;;
30378;SDS011;17168;49.164;9.060;2023-05-07T05:54:41;3.55;;;3.10;;
30378;SDS011;17168;49.164;9.060;2023-05-07T05:57:15;4.28;;;3.65;;
30378;SDS011;17168;49.164;9.060;2023-05-07T05:59:49;5.53;;;4.55;;
30378;SDS011;17168;49.164;9.060;2023-05-07T06:02:26;3.72;;;3.42;;
30378;SDS011;17168;49.164;9.060;2023-05-07T06:04:58;4.47;;;3.90;;
30378;SDS011;17168;49.164;9.060;2023-05-07T06:07:30;5.47;;;3.92;;
30378;SDS011;17168;49.164;9.060;2023-05-07T06:10:03;4.03;;;3.58;;
30378;SDS011;17168;49.164;9.060;2023-05-07T06:12:36;3.75;;;3.05;;
30378;SDS011;17168;49.164;9.060;2023-05-07T06:15:09;5.47;;;3.65;;
30378;SDS011;17168;49.164;9.060;2023-05-07T06:17:46;3.58;;;2.70;;
30378;SDS011;17168;49.164;9.060;2023-05-07T06:20:18;3.95;;;3.65;;
30378;SDS011;17168;49.164;9.060;2023-05-07T06:22:51;4.75;;;4.30;;
30378;SDS011;17168;49.164;9.060;2023-05-07T06:25:23;3.58;;;2.63;;
30378;SDS011;17168;49.164;9.060;2023-05-07T06:27:55;4.65;;;4.18;;
30378;SDS011;17168;49.164;9.060;2023-05-07T06:30:27;3.33;;;2.85;;
30378;SDS011;17168;49.164;9.060;2023-05-07T06:33:03;5.47;;;4.03;;
30378;SDS011;17168;49.164;9.060;2023-05-07T06:35:36;5.00;;;4.18;;
30378;SDS011;17168;49.164;9.060;2023-05-07T06:38:09;6.75;;;4.20;;
30378;SDS011;17168;49.164;9.060;2023-05-07T06:40:48;3.47;;;2.70;;
30378;SDS011;17168;49.164;9.060;2023-05-07T06:43:20;5.22;;;3.30;;
30378;SDS011;17168;49.164;9.060;2023-05-07T06:45:52;3.45;;;2.65;;
30378;SDS011;17168;49.164;9.060;2023-05-07T06:48:28;3.20;;;2.38;;
30378;SDS011;17168;49.164;9.060;2023-05-07T06:51:02;4.85;;;3.28;;
30378;SDS011;17168;49.164;9.060;2023-05-07T06:53:36;11.82;;;6.60;;
30378;SDS011;17168;49.164;9.060;2023-05-07T06:56:09;4.57;;;3.10;;
30378;SDS011;17168;49.164;9.060;2023-05-07T06:58:43;5.13;;;3.17;;
30378;SDS011;17168;49.164;9.060;2023-05-07T07:01:15;3.58;;;2.78;;
30378;SDS011;17168;49.164;9.060;2023-05-07T07:03:51;3.00;;;2.40;;
30378;SDS011;17168;49.164;9.060;2023-05-07T07:06:25;4.43;;;2.45;;
30378;SDS011;17168;49.164;9.060;2023-05-07T07:08:58;5.35;;;2.90;;
30378;SDS011;17168;49.164;9.060;2023-05-07T07:11:31;3.85;;;3.30;;
30378;SDS011;17168;49.164;9.060;2023-05-07T07:14:04;3.55;;;2.40;;
30378;SDS011;17168;49.164;9.060;2023-05-07T07:16:37;4.47;;;3.00;;
30378;SDS011;17168;49.164;9.060;2023-05-07T07:19:13;2.67;;;2.38;;
30378;SDS011;17168;49.164;9.060;2023-05-07T07:21:47;3.17;;;2.40;;
30378;SDS011;17168;49.164;9.060;2023-05-07T07:24:20;4.32;;;2.53;;
30378;SDS011;17168;49.164;9.060;2023-05-07T07:26:53;4.20;;;2.70;;
30378;SDS011;17168;49.164;9.060;2023-05-07T07:29:27;4.22;;;3.67;;
30378;SDS011;17168;49.164;9.060;2023-05-07T07:32:01;3.92;;;2.72;;
30378;SDS011;17168;49.164;9.060;2023-05-07T07:34:36;3.20;;;2.25;;
30378;SDS011;17168;49.164;9.060;2023-05-07T07:37:09;8.15;;;3.90;;
30378;SDS011;17168;49.164;9.060;2023-05-07T07:39:42;16.98;;;7.43;;
30378;SDS011;17168;49.164;9.060;2023-05-07T07:42:16;3.53;;;2.17;;
30378;SDS011;17168;49.164;9.060;2023-05-07T07:44:50;4.03;;;2.30;;
30378;SDS011;17168;49.164;9.060;2023-05-07T07:47:22;4.18;;;3.00;;
30378;SDS011;17168;49.164;9.060;2023-05-07T07:49:57;2.78;;;2.15;;
30378;SDS011;17168;49.164;9.060;2023-05-07T07:52:29;4.05;;;2.97;;
30378;SDS011;17168;49.164;9.060;2023-05-07T07:55:03;2.90;;;2.25;;
30378;SDS011;17168;49.164;9.060;2023-05-07T07:57:37;3.58;;;3.10;;
30378;SDS011;17168;49.164;9.060;2023-05-07T08:00:11;5.47;;;2.88;;
30378;SDS011;17168;49.164;9.060;2023-05-07T08:02:44;2.90;;;2.03;;
30378;SDS011;17168;49.164;9.060;2023-05-07T08:05:21;6.88;;;3.58;;
30378;SDS011;17168;49.164;9.060;2023-05-07T08:07:54;3.25;;;2.10;;
30378;SDS011;17168;49.164;9.060;2023-05-07T08:10:27;2.72;;;2.53;;
30378;SDS011;17168;49.164;9.060;2023-05-07T08:13:00;2.90;;;2.10;;
30378;SDS011;17168;49.164;9.060;2023-05-07T08:15:34;4.45;;;2.47;;
30378;SDS011;17168;49.164;9.060;2023-05-07T08:18:08;3.03;;;2.72;;
30378;SDS011;17168;49.164;9.060;2023-05-07T08:20:43;6.22;;;2.58;;
30378;SDS011;17168;49.164;9.060;2023-05-07T08:23:16;9.95;;;4.70;;
30378;SDS011;17168;49.164;9.060;2023-05-07T08:25:49;4.18;;;2.47;;
30378;SDS011;17168;49.164;9.060;2023-05-07T08:28:22;3.10;;;2.80;;
30378;SDS011;17168;49.164;9.060;2023-05-07T08:30:56;3.13;;;2.25;;
30378;SDS011;17168;49.164;9.060;2023-05-07T08:33:32;4.93;;;2.90;;
30378;SDS011;17168;49.164;9.060;2023-05-07T08:36:07;3.10;;;2.10;;
30378;SDS011;17168;49.164;9.060;2023-05-07T08:38:39;3.40;;;2.05;;
30378;SDS011;17168;49.164;9.060;2023-05-07T08:41:18;6.00;;;3.38;;
30378;SDS011;17168;49.164;9.060;2023-05-07T08:43:53;4.35;;;1.95;;
30378;SDS011;17168;49.164;9.060;2023-05-07T08:46:30;3.10;;;2.35;;
30378;SDS011;17168;49.164;9.060;2023-05-07T08:49:03;3.83;;;2.17;;
30378;SDS011;17168;49.164;9.060;2023-05-07T08:51:39;4.07;;;2.63;;
30378;SDS011;17168;49.164;9.060;2023-05-07T08:54:16;3.10;;;2.72;;
30378;SDS011;17168;49.164;9.060;2023-05-07T08:56:51;2.80;;;2.38;;
30378;SDS011;17168;49.164;9.060;2023-05-07T08:59:25;3.92;;;3.63;;
30378;SDS011;17168;49.164;9.060;2023-05-07T09:01:57;5.90;;;2.72;;
30378;SDS011;17168;49.164;9.060;2023-05-07T09:04:30;4.82;;;3.00;;
30378;SDS011;17168;49.164;9.060;2023-05-07T09:07:06;3.38;;;2.53;;
30378;SDS011;17168;49.164;9.060;2023-05-07T09:09:39;2.83;;;2.55;;
30378;SDS011;17168;49.164;9.060;2023-05-07T09:12:12;3.33;;;3.03;;
30378;SDS011;17168;49.164;9.060;2023-05-07T09:14:46;2.95;;;2.55;;
30378;SDS011;17168;49.164;9.060;2023-05-07T09:17:20;3.95;;;2.85;;
30378;SDS011;17168;49.164;9.060;2023-05-07T09:19:52;2.95;;;2.28;;
30378;SDS011;17168;49.164;9.060;2023-05-07T09:22:27;4.53;;;2.85;;
30378;SDS011;17168;49.164;9.060;2023-05-07T09:25:03;3.53;;;3.08;;
30378;SDS011;17168;49.164;9.060;2023-05-07T09:27:39;2.67;;;2.47;;
30378;SDS011;17168;49.164;9.060;2023-05-07T09:30:13;2.75;;;2.30;;
30378;SDS011;17168;49.164;9.060;2023-05-07T09:32:45;2.60;;;2.13;;
30378;SDS011;17168;49.164;9.060;2023-05-07T09:35:19;3.15;;;2.63;;
30378;SDS011;17168;49.164;9.060;2023-05-07T09:37:57;2.85;;;2.20;;
30378;SDS011;17168;49.164;9.060;2023-05-07T09:40:34;3.05;;;2.75;;
30378;SDS011;17168;49.164;9.060;2023-05-07T09:43:09;3.10;;;2.35;;
30378;SDS011;17168;49.164;9.060;2023-05-07T09:45:43;3.35;;;2.42;;
30378;SDS011;17168;49.164;9.060;2023-05-07T09:48:15;3.88;;;2.58;;
30378;SDS011;17168;49.164;9.060;2023-05-07T09:50:53;2.08;;;1.63;;
30378;SDS011;17168;49.164;9.060;2023-05-07T09:53:34;2.88;;;2.25;;
30378;SDS011;17168;49.164;9.060;2023-05-07T09:56:09;3.30;;;2.75;;
30378;SDS011;17168;49.164;9.060;2023-05-07T09:58:43;3.67;;;2.67;;
30378;SDS011;17168;49.164;9.060;2023-05-07T10:01:17;3.72;;;2.20;;
30378;SDS011;17168;49.164;9.060;2023-05-07T10:03:54;5.00;;;2.92;;
30378;SDS011;17168;49.164;9.060;2023-05-07T10:06:27;3.33;;;2.72;;
30378;SDS011;17168;49.164;9.060;2023-05-07T10:09:04;3.28;;;2.90;;
30378;SDS011;17168;49.164;9.060;2023-05-07T10:11:38;5.05;;;2.58;;
30378;SDS011;17168;49.164;9.060;2023-05-07T10:14:12;3.33;;;2.13;;
30378;SDS011;17168;49.164;9.060;2023-05-07T10:16:47;2.55;;;2.13;;
30378;SDS011;17168;49.164;9.060;2023-05-07T10:19:22;4.18;;;2.53;;
30378;SDS011;17168;49.164;9.060;2023-05-07T10:22:00;3.28;;;2.85;;
30378;SDS011;17168;49.164;9.060;2023-05-07T10:24:39;3.00;;;2.20;;
30378;SDS011;17168;49.164;9.060;2023-05-07T10:27:14;3.00;;;2.70;;
30378;SDS011;17168;49.164;9.060;2023-05-07T10:29:52;3.50;;;2.35;;
30378;SDS011;17168;49.164;9.060;2023-05-07T10:32:40;2.63;;;2.40;;
30378;SDS011;17168;49.164;9.060;2023-05-07T10:35:18;3.65;;;2.72;;
30378;SDS011;17168;49.164;9.060;2023-05-07T10:37:54;2.75;;;2.40;;
30378;SDS011;17168;49.164;9.060;2023-05-07T10:40:30;3.25;;;1.98;;
30378;SDS011;17168;49.164;9.060;2023-05-07T10:43:04;1.80;;;1.50;;
30378;SDS011;17168;49.164;9.060;2023-05-07T10:48:15;4.78;;;2.22;;
30378;SDS011;17168;49.164;9.060;2023-05-07T10:56:53;3.17;;;2.38;;
30378;SDS011;17168;49.164;9.060;2023-05-07T10:59:37;2.42;;;2.00;;
30378;SDS011;17168;49.164;9.060;2023-05-07T11:02:14;3.67;;;2.28;;
30378;SDS011;17168;49.164;9.060;2023-05-07T11:07:54;2.55;;;1.73;;
30378;SDS011;17168;49.164;9.060;2023-05-07T11:16:18;3.03;;;2.10;;
30378;SDS011;17168;49.164;9.060;2023-05-07T11:18:53;4.75;;;2.15;;
30378;SDS011;17168;49.164;9.060;2023-05-07T11:21:32;3.40;;;2.92;;
30378;SDS011;17168;49.164;9.060;2023-05-07T11:24:07;3.13;;;1.95;;
30378;SDS011;17168;49.164;9.060;2023-05-07T11:26:48;4.65;;;2.50;;
30378;SDS011;17168;49.164;9.060;2023-05-07T11:29:25;1.92;;;1.58;;
30378;SDS011;17168;49.164;9.060;2023-05-07T11:32:00;4.22;;;2.15;;
30378;SDS011;17168;49.164;9.060;2023-05-07T11:34:35;4.95;;;2.25;;
30378;SDS011;17168;49.164;9.060;2023-05-07T11:37:08;3.13;;;1.95;;
30378;SDS011;17168;49.164;9.060;2023-05-07T11:39:44;2.75;;;1.33;;
30378;SDS011;17168;49.164;9.060;2023-05-07T11:42:27;2.45;;;1.20;;
30378;SDS011;17168;49.164;9.060;2023-05-07T11:45:03;2.97;;;1.77;;
30378;SDS011;17168;49.164;9.060;2023-05-07T11:47:37;1.50;;;1.40;;
30378;SDS011;17168;49.164;9.060;2023-05-07T11:50:14;1.70;;;1.58;;
30378;SDS011;17168;49.164;9.060;2023-05-07T11:52:50;1.95;;;1.65;;
30378;SDS011;17168;49.164;9.060;2023-05-07T11:55:23;2.72;;;1.25;;
30378;SDS011;17168;49.164;9.060;2023-05-07T11:57:58;2.42;;;1.10;;
30378;SDS011;17168;49.164;9.060;2023-05-07T12:00:33;1.55;;;1.13;;
30378;SDS011;17168;49.164;9.060;2023-05-07T12:03:05;2.03;;;0.90;;
30378;SDS011;17168;49.164;9.060;2023-05-07T12:05:38;1.73;;;1.20;;
30378;SDS011;17168;49.164;9.060;2023-05-07T12:08:13;2.55;;;1.40;;
30378;SDS011;17168;49.164;9.060;2023-05-07T12:10:47;1.05;;;0.93;;
30378;SDS011;17168;49.164;9.060;2023-05-07T12:13:22;2.35;;;2.17;;
30378;SDS011;17168;49.164;9.060;2023-05-07T12:15:58;3.33;;;1.55;;
30378;SDS011;17168;49.164;9.060;2023-05-07T12:18:31;1.52;;;1.42;;
30378;SDS011;17168;49.164;9.060;2023-05-07T12:21:04;1.77;;;1.10;;
30378;SDS011;17168;49.164;9.060;2023-05-07T12:23:39;1.70;;;1.13;;
30378;SDS011;17168;49.164;9.060;2023-05-07T12:26:12;1.55;;;1.00;;
30378;SDS011;17168;49.164;9.060;2023-05-07T12:28:45;2.15;;;0.93;;
30378;SDS011;17168;49.164;9.060;2023-05-07T12:31:21;1.20;;;0.93;;
30378;SDS011;17168;49.164;9.060;2023-05-07T12:33:54;2.22;;;1.33;;
30378;SDS011;17168;49.164;9.060;2023-05-07T12:36:36;2.33;;;1.08;;
30378;SDS011;17168;49.164;9.060;2023-05-07T12:39:10;2.58;;;1.10;;
30378;SDS011;17168;49.164;9.060;2023-05-07T12:41:52;1.23;;;0.93;;
30378;SDS011;17168;49.164;9.060;2023-05-07T12:44:29;1.17;;;1.00;;
30378;SDS011;17168;49.164;9.060;2023-05-07T12:47:06;3.50;;;1.10;;
30378;SDS011;17168;49.164;9.060;2023-05-07T12:49:40;3.17;;;1.75;;
30378;SDS011;17168;49.164;9.060;2023-05-07T12:52:13;2.88;;;1.05;;
30378;SDS011;17168;49.164;9.060;2023-05-07T12:54:45;2.08;;;1.10;;
30378;SDS011;17168;49.164;9.060;2023-05-07T12:57:19;2.67;;;2.47;;
30378;SDS011;17168;49.164;9.060;2023-05-07T12:59:57;1.55;;;1.02;;
30378;SDS011;17168;49.164;9.060;2023-05-07T13:02:37;1.55;;;1.02;;
30378;SDS011;17168;49.164;9.060;2023-05-07T13:05:12;2.85;;;1.02;;
30378;SDS011;17168;49.164;9.060;2023-05-07T13:07:52;1.75;;;1.20;;
30378;SDS011;17168;49.164;9.060;2023-05-07T13:10:26;1.50;;;1.00;;
30378;SDS011;17168;49.164;9.060;2023-05-07T13:13:00;1.83;;;1.10;;
30378;SDS011;17168;49.164;9.060;2023-05-07T13:15:32;1.33;;;0.98;;
30378;SDS011;17168;49.164;9.060;2023-05-07T13:18:07;1.75;;;1.08;;
30378;SDS011;17168;49.164;9.060;2023-05-07T13:20:42;1.65;;;1.35;;
30378;SDS011;17168;49.164;9.060;2023-05-07T13:23:17;1.40;;;1.10;;
30378;SDS011;17168;49.164;9.060;2023-05-07T13:25:51;2.10;;;0.82;;
30378;SDS011;17168;49.164;9.060;2023-05-07T13:28:27;4.43;;;3.05;;
30378;SDS011;17168;49.164;9.060;2023-05-07T13:31:02;2.60;;;2.40;;
30378;SDS011;17168;49.164;9.060;2023-05-07T13:33:37;2.75;;;1.30;;
30378;SDS011;17168;49.164;9.060;2023-05-07T13:36:09;1.42;;;1.02;;
30378;SDS011;17168;49.164;9.060;2023-05-07T13:38:42;2.25;;;0.90;;
30378;SDS011;17168;49.164;9.060;2023-05-07T13:41:16;2.13;;;1.10;;
30378;SDS011;17168;49.164;9.060;2023-05-07T13:43:48;2.70;;;1.15;;
30378;SDS011;17168;49.164;9.060;2023-05-07T13:46:21;1.70;;;1.00;;
30378;SDS011;17168;49.164;9.060;2023-05-07T13:48:56;1.83;;;1.02;;
30378;SDS011;17168;49.164;9.060;2023-05-07T13:51:29;7.25;;;1.08;;
30378;SDS011;17168;49.164;9.060;2023-05-07T13:54:02;1.50;;;0.95;;
30378;SDS011;17168;49.164;9.060;2023-05-07T13:56:34;2.05;;;1.45;;
30378;SDS011;17168;49.164;9.060;2023-05-07T13:59:07;3.58;;;1.90;;
30378;SDS011;17168;49.164;9.060;2023-05-07T14:01:40;2.80;;;2.60;;
30378;SDS011;17168;49.164;9.060;2023-05-07T14:04:15;1.55;;;0.90;;
30378;SDS011;17168;49.164;9.060;2023-05-07T14:06:49;1.00;;;0.90;;
30378;SDS011;17168;49.164;9.060;2023-05-07T14:09:22;1.90;;;1.02;;
30378;SDS011;17168;49.164;9.060;2023-05-07T14:11:55;3.33;;;2.05;;
30378;SDS011;17168;49.164;9.060;2023-05-07T14:14:27;6.10;;;2.00;;
30378;SDS011;17168;49.164;9.060;2023-05-07T14:16:59;3.33;;;1.50;;
30378;SDS011;17168;49.164;9.060;2023-05-07T14:19:34;5.18;;;2.35;;
30378;SDS011;17168;49.164;9.060;2023-05-07T14:22:07;1.90;;;1.30;;
30378;SDS011;17168;49.164;9.060;2023-05-07T14:24:40;2.17;;;1.08;;
30378;SDS011;17168;49.164;9.060;2023-05-07T14:27:18;5.90;;;2.83;;
30378;SDS011;17168;49.164;9.060;2023-05-07T14:29:51;2.78;;;2.03;;
30378;SDS011;17168;49.164;9.060;2023-05-07T14:32:23;3.17;;;2.00;;
30378;SDS011;17168;49.164;9.060;2023-05-07T14:35:00;3.42;;;2.00;;
30378;SDS011;17168;49.164;9.060;2023-05-07T14:37:32;5.22;;;2.42;;
30378;SDS011;17168;49.164;9.060;2023-05-07T14:40:06;5.50;;;2.20;;
30378;SDS011;17168;49.164;9.060;2023-05-07T14:42:44;8.00;;;3.92;;
30378;SDS011;17168;49.164;9.060;2023-05-07T14:45:26;6.55;;;3.60;;
30378;SDS011;17168;49.164;9.060;2023-05-07T14:49:44;5.97;;;2.72;;
30378;SDS011;17168;49.164;9.060;2023-05-07T14:59:14;5.00;;;3.70;;
30378;SDS011;17168;49.164;9.060;2023-05-07T15:02:43;3.88;;;2.47;;
30378;SDS011;17168;49.164;9.060;2023-05-07T15:06:20;5.95;;;5.07;;
30378;SDS011;17168;49.164;9.060;2023-05-07T15:09:23;5.18;;;3.63;;
30378;SDS011;17168;49.164;9.060;2023-05-07T15:12:44;5.05;;;3.67;;
30378;SDS011;17168;49.164;9.060;2023-05-07T15:16:25;4.70;;;3.08;;
30378;SDS011;17168;49.164;9.060;2023-05-07T15:20:25;5.25;;;4.18;;
30378;SDS011;17168;49.164;9.060;2023-05-07T15:26:42;6.35;;;3.42;;
30378;SDS011;17168;49.164;9.060;2023-05-07T15:52:18;8.57;;;4.78;;
30378;SDS011;17168;49.164;9.060;2023-05-07T15:55:49;5.72;;;4.55;;
30378;SDS011;17168;49.164;9.060;2023-05-07T15:58:58;7.78;;;5.15;;
30378;SDS011;17168;49.164;9.060;2023-05-07T16:01:31;8.85;;;5.95;;
30378;SDS011;17168;49.164;9.060;2023-05-07T16:04:06;10.65;;;5.38;;
30378;SDS011;17168;49.164;9.060;2023-05-07T16:06:38;6.68;;;5.10;;
30378;SDS011;17168;49.164;9.060;2023-05-07T16:09:14;11.13;;;5.68;;
30378;SDS011;17168;49.164;9.060;2023-05-07T16:11:48;5.85;;;4.25;;
30378;SDS011;17168;49.164;9.060;2023-05-07T16:14:22;9.15;;;4.90;;
30378;SDS011;17168;49.164;9.060;2023-05-07T16:16:56;6.25;;;3.60;;
30378;SDS011;17168;49.164;9.060;2023-05-07T16:19:30;12.80;;;4.47;;
30378;SDS011;17168;49.164;9.060;2023-05-07T16:22:03;27.88;;;10.77;;
30378;SDS011;17168;49.164;9.060;2023-05-07T16:24:38;7.65;;;4.82;;
30378;SDS011;17168;49.164;9.060;2023-05-07T16:27:11;7.45;;;4.47;;
30378;SDS011;17168;49.164;9.060;2023-05-07T16:29:45;8.90;;;4.22;;
30378;SDS011;17168;49.164;9.060;2023-05-07T16:32:18;4.43;;;3.80;;
30378;SDS011;17168;49.164;9.060;2023-05-07T16:34:51;7.47;;;5.20;;
30378;SDS011;17168;49.164;9.060;2023-05-07T16:37:24;5.93;;;4.15;;